createdAt,value
2019-05-10T00:00:28.417Z,928.3
2019-05-10T00:01:29.840Z,928.2
2019-05-10T00:02:30.963Z,928.3
2019-05-10T00:03:32.095Z,928.2
2019-05-10T00:04:33.494Z,928.3
2019-05-10T00:05:34.885Z,928.4
2019-05-10T00:06:36.031Z,928.2
2019-05-10T00:07:37.150Z,928.3
2019-05-10T00:08:38.287Z,928.2
2019-05-10T00:09:39.415Z,928.3
2019-05-10T00:10:40.161Z,928.3
2019-05-10T00:11:41.572Z,928.3
2019-05-10T00:12:42.966Z,928.3
2019-05-10T00:13:44.352Z,928.3
2019-05-10T00:14:45.744Z,928.4
2019-05-10T00:15:46.880Z,928.4
2019-05-10T00:16:48.318Z,928.4
2019-05-10T00:17:49.441Z,928.4
2019-05-10T00:18:50.837Z,928.3
2019-05-10T00:19:52.225Z,928.3
2019-05-10T00:20:52.725Z,928.4
2019-05-10T00:21:53.885Z,928.4
2019-05-10T00:22:55.279Z,928.4
2019-05-10T00:23:56.666Z,928.4
2019-05-10T00:25:10.401Z,928.5
2019-05-10T00:25:58.405Z,928.3
2019-05-10T00:26:59.833Z,928.4
2019-05-10T00:28:00.965Z,928.3
2019-05-10T00:29:02.124Z,928.3
2019-05-10T00:30:03.269Z,928.3
2019-05-10T00:31:03.767Z,928.4
2019-05-10T00:32:04.896Z,928.3
2019-05-10T00:33:06.018Z,928.4
2019-05-10T00:34:07.151Z,928.3
2019-05-10T00:35:08.278Z,928.4
2019-05-10T00:36:09.673Z,928.3
2019-05-10T00:37:11.093Z,928.5
2019-05-10T00:38:12.475Z,928.5
2019-05-10T00:39:13.874Z,928.5
2019-05-10T00:40:15.263Z,928.5
2019-05-10T00:41:16.019Z,928.5
2019-05-10T00:42:17.170Z,928.5
2019-05-10T00:43:18.578Z,928.5
2019-05-10T00:44:19.966Z,928.4
2019-05-10T00:45:21.355Z,928.5
2019-05-10T00:46:22.745Z,928.4
2019-05-10T00:47:24.177Z,928.6
2019-05-10T00:48:25.597Z,928.5
2019-05-10T00:49:26.717Z,928.6
2019-05-10T00:50:27.847Z,928.5
2019-05-10T00:51:28.597Z,928.6
2019-05-10T00:52:30.024Z,928.6
2019-05-10T00:53:31.146Z,928.6
2019-05-10T00:54:32.531Z,928.6
2019-05-10T00:55:33.925Z,928.5
2019-05-10T00:56:35.310Z,927.1
2019-05-10T00:57:36.757Z,928.3
2019-05-10T00:58:38.159Z,928.6
2019-05-10T00:59:39.281Z,928.6
2019-05-10T01:00:40.679Z,928.3
2019-05-10T01:01:41.436Z,928.6
2019-05-10T01:02:42.856Z,928.7
2019-05-10T01:03:44.248Z,928.6
2019-05-10T01:04:45.372Z,928.6
2019-05-10T01:05:46.505Z,928.6
2019-05-10T01:06:47.626Z,928.6
2019-05-10T01:07:49.055Z,928.5
2019-05-10T01:08:50.446Z,928.4
2019-05-10T01:09:51.835Z,928.6
2019-05-10T01:10:53.233Z,928.5
2019-05-10T01:11:53.722Z,928.7
2019-05-10T01:12:54.876Z,928.5
2019-05-10T01:13:56.270Z,928.6
2019-05-10T01:14:57.659Z,928.6
2019-05-10T01:15:59.053Z,928.6
2019-05-10T01:17:00.450Z,928.6
2019-05-10T01:18:01.930Z,928.5
2019-05-10T01:19:03.328Z,928.6
2019-05-10T01:20:04.718Z,928.6
2019-05-10T01:21:06.110Z,928.7
2019-05-10T01:22:06.865Z,928.7
2019-05-10T01:23:08.296Z,928.6
2019-05-10T01:24:09.694Z,928.4
2019-05-10T01:25:10.818Z,928.5
2019-05-10T01:26:11.952Z,928.5
2019-05-10T01:27:13.071Z,928.2
2019-05-10T01:28:14.603Z,928.7
2019-05-10T01:29:15.996Z,928.7
2019-05-10T01:30:17.399Z,928.7
2019-05-10T01:31:18.820Z,928.7
2019-05-10T01:32:19.567Z,928.7
2019-05-10T01:33:20.994Z,928.7
2019-05-10T01:34:22.389Z,928.7
2019-05-10T01:35:23.774Z,928.7
2019-05-10T01:36:25.173Z,928.7
2019-05-10T01:37:26.604Z,928.7
2019-05-10T01:38:28.025Z,926.8
2019-05-10T01:39:29.156Z,928.7
2019-05-10T01:40:30.285Z,928.6
2019-05-10T01:41:31.418Z,928.6
2019-05-10T01:42:32.182Z,928.7
2019-05-10T01:43:33.617Z,928.7
2019-05-10T01:44:35.000Z,928.7
2019-05-10T01:45:36.390Z,928.7
2019-05-10T01:46:37.782Z,928.7
2019-05-10T01:47:39.360Z,928.7
2019-05-10T01:48:39.776Z,928.7
2019-05-10T01:49:40.898Z,927.5
2019-05-10T01:50:42.029Z,928.5
2019-05-10T01:51:43.408Z,928.6
2019-05-10T01:52:44.179Z,928.7
2019-05-10T01:53:45.596Z,928.7
2019-05-10T01:54:46.990Z,928.7
2019-05-10T01:55:51.900Z,928.8
2019-05-10T01:56:49.748Z,928.7
2019-05-10T01:57:51.134Z,928.7
2019-05-10T01:58:52.570Z,928.8
2019-05-10T01:59:53.962Z,928.7
2019-05-10T02:00:55.356Z,928.8
2019-05-10T02:01:56.767Z,926.9
2019-05-10T02:02:57.286Z,928.8
2019-05-10T02:03:58.454Z,928.9
2019-05-10T02:04:59.910Z,928.9
2019-05-10T02:06:01.308Z,928.9
2019-05-10T02:07:02.429Z,928.9
2019-05-10T02:08:03.563Z,928.8
2019-05-10T02:09:04.980Z,928.8
2019-05-10T02:10:06.382Z,928.9
2019-05-10T02:11:07.787Z,928.8
2019-05-10T02:12:09.182Z,928.8
2019-05-10T02:13:09.946Z,928.8
2019-05-10T02:14:11.364Z,928.8
2019-05-10T02:15:12.766Z,928.8
2019-05-10T02:16:14.194Z,928.8
2019-05-10T02:17:15.591Z,928.8
2019-05-10T02:18:16.985Z,928.9
2019-05-10T02:19:18.394Z,928.9
2019-05-10T02:20:19.785Z,928.9
2019-05-10T02:21:21.171Z,928.9
2019-05-10T02:22:22.304Z,928.8
2019-05-10T02:23:22.838Z,928.8
2019-05-10T02:24:23.996Z,928.8
2019-05-10T02:25:25.392Z,928.8
2019-05-10T02:26:26.780Z,928.8
2019-05-10T02:27:28.176Z,928.8
2019-05-10T02:28:29.560Z,928.8
2019-05-10T02:29:30.994Z,928.8
2019-05-10T02:30:32.389Z,928.7
2019-05-10T02:31:33.796Z,928.7
2019-05-10T02:32:35.236Z,928.7
2019-05-10T02:33:36.006Z,928.8
2019-05-10T02:34:37.431Z,928.8
2019-05-10T02:35:38.912Z,928.8
2019-05-10T02:36:40.027Z,928.8
2019-05-10T02:37:41.162Z,928.8
2019-05-10T02:38:42.292Z,928.8
2019-05-10T02:39:43.718Z,928.8
2019-05-10T02:40:45.118Z,928.6
2019-05-10T02:41:46.516Z,928.8
2019-05-10T02:42:47.645Z,928.7
2019-05-10T02:43:48.405Z,928.9
2019-05-10T02:44:49.814Z,928.9
2019-05-10T02:45:51.239Z,928.8
2019-05-10T02:46:52.614Z,928.8
2019-05-10T02:47:54.011Z,928.8
2019-05-10T02:48:55.408Z,928.8
2019-05-10T02:49:59.123Z,928.8
2019-05-10T02:50:57.640Z,928.9
2019-05-10T02:51:58.773Z,928.8
2019-05-10T02:53:00.168Z,928.4
2019-05-10T02:54:00.934Z,928.9
2019-05-10T02:55:02.344Z,928.4
2019-05-10T02:56:03.734Z,928.8
2019-05-10T02:57:04.874Z,928.8
2019-05-10T02:58:05.991Z,928.7
2019-05-10T02:59:07.382Z,928.5
2019-05-10T03:00:08.798Z,928.8
2019-05-10T03:01:10.184Z,928.8
2019-05-10T03:02:11.588Z,928.6
2019-05-10T03:03:12.986Z,928.7
2019-05-10T03:04:13.737Z,928.5
2019-05-10T03:05:15.147Z,928.7
2019-05-10T03:06:16.538Z,926.9
2019-05-10T03:07:17.927Z,928.7
2019-05-10T03:08:19.320Z,928.7
2019-05-10T03:09:20.719Z,928.7
2019-05-10T03:10:22.208Z,928.7
2019-05-10T03:11:23.606Z,928.7
2019-05-10T03:12:24.765Z,928.7
2019-05-10T03:13:27.151Z,928.7
2019-05-10T03:14:26.983Z,928.6
2019-05-10T03:15:28.135Z,928.7
2019-05-10T03:16:29.266Z,928.7
2019-05-10T03:17:30.830Z,928.5
2019-05-10T03:18:31.219Z,928.7
2019-05-10T03:19:32.617Z,928.8
2019-05-10T03:20:34.041Z,928.5
2019-05-10T03:21:35.166Z,928.6
2019-05-10T03:22:36.295Z,928.6
2019-05-10T03:23:37.414Z,928.6
2019-05-10T03:24:37.911Z,928.8
2019-05-10T03:25:39.328Z,928.8
2019-05-10T03:26:56.841Z,928.8
2019-05-10T03:27:42.095Z,928.9
2019-05-10T03:28:43.484Z,928.8
2019-05-10T03:29:44.884Z,928.8
2019-05-10T03:30:46.361Z,928.9
2019-05-10T03:31:47.756Z,928.9
2019-05-10T03:32:49.160Z,928.7
2019-05-10T03:33:55.993Z,928.9
2019-05-10T03:34:51.322Z,928.8
2019-05-10T03:35:52.780Z,928.9
2019-05-10T03:36:54.145Z,929
2019-05-10T03:37:55.547Z,928.8
2019-05-10T03:38:56.938Z,929
2019-05-10T03:39:58.334Z,929
2019-05-10T03:40:59.485Z,928.8
2019-05-10T03:42:00.892Z,929
2019-05-10T03:43:02.281Z,929
2019-05-10T03:44:03.686Z,928.9
2019-05-10T03:45:04.447Z,929
2019-05-10T03:46:05.854Z,928.8
2019-05-10T03:47:06.988Z,928.2
2019-05-10T03:48:08.144Z,928.9
2019-05-10T03:49:09.247Z,928.9
2019-05-10T03:50:10.684Z,929
2019-05-10T03:51:11.812Z,929
2019-05-10T03:52:13.212Z,929
2019-05-10T03:53:14.602Z,929
2019-05-10T03:54:15.992Z,929
2019-05-10T03:55:16.762Z,928.8
2019-05-10T03:56:18.161Z,928.9
2019-05-10T03:57:20.561Z,928.7
2019-05-10T03:58:20.681Z,928.9
2019-05-10T03:59:22.090Z,928.9
2019-05-10T04:00:23.471Z,929
2019-05-10T04:01:24.610Z,929
2019-05-10T04:02:25.745Z,928.9
2019-05-10T04:03:26.873Z,929
2019-05-10T04:04:28.003Z,929
2019-05-10T04:05:28.761Z,929
2019-05-10T04:06:30.180Z,929
2019-05-10T04:07:31.306Z,928.9
2019-05-10T04:08:32.426Z,929
2019-05-10T04:09:33.825Z,929
2019-05-10T04:10:35.216Z,929
2019-05-10T04:11:36.365Z,929
2019-05-10T04:12:37.809Z,929
2019-05-10T04:13:38.938Z,929
2019-05-10T04:14:40.070Z,929
2019-05-10T04:15:40.829Z,929.1
2019-05-10T04:16:42.254Z,929
2019-05-10T04:17:43.637Z,929
2019-05-10T04:18:45.034Z,929
2019-05-10T04:19:46.159Z,929
2019-05-10T04:20:47.293Z,929
2019-05-10T04:21:48.732Z,928.9
2019-05-10T04:22:49.874Z,929
2019-05-10T04:23:51.315Z,929
2019-05-10T04:24:52.448Z,929.1
2019-05-10T04:25:52.937Z,929.1
2019-05-10T04:26:54.362Z,929
2019-05-10T04:27:55.762Z,929.2
2019-05-10T04:28:56.890Z,929.1
2019-05-10T04:29:58.020Z,929.1
2019-05-10T04:30:59.146Z,929.1
2019-05-10T04:32:00.309Z,929.2
2019-05-10T04:33:01.701Z,929.2
2019-05-10T04:34:02.825Z,929.2
2019-05-10T04:35:04.223Z,929
2019-05-10T04:36:04.983Z,929.3
2019-05-10T04:37:06.427Z,929.2
2019-05-10T04:38:07.828Z,929.1
2019-05-10T04:39:09.216Z,929.3
2019-05-10T04:40:10.608Z,929.2
2019-05-10T04:41:12.005Z,929.3
2019-05-10T04:42:13.147Z,929.4
2019-05-10T04:43:14.276Z,929.3
2019-05-10T04:44:15.411Z,929.3
2019-05-10T04:45:16.554Z,929.4
2019-05-10T04:46:17.306Z,929.2
2019-05-10T04:47:18.729Z,929.4
2019-05-10T04:48:20.121Z,929.3
2019-05-10T04:49:21.525Z,929.2
2019-05-10T04:50:22.919Z,929.4
2019-05-10T04:51:24.317Z,927.5
2019-05-10T04:52:25.729Z,929.4
2019-05-10T04:53:27.119Z,929.4
2019-05-10T04:54:28.509Z,929.3
2019-05-10T04:55:29.908Z,929.5
2019-05-10T04:56:30.675Z,929.5
2019-05-10T04:57:49.071Z,929.6
2019-05-10T04:58:32.933Z,929.5
2019-05-10T04:59:34.043Z,929.5
2019-05-10T05:00:35.177Z,929.6
2019-05-10T05:01:36.625Z,929.6
2019-05-10T05:02:38.041Z,929.6
2019-05-10T05:03:39.444Z,929.5
2019-05-10T05:04:40.836Z,929.7
2019-05-10T05:05:42.228Z,929.7
2019-05-10T05:06:43.024Z,929.8
2019-05-10T05:07:44.171Z,929.8
2019-05-10T05:08:45.293Z,929.7
2019-05-10T05:09:46.427Z,929.8
2019-05-10T05:10:47.862Z,929.9
2019-05-10T05:11:48.993Z,929.8
2019-05-10T05:12:50.141Z,929.9
2019-05-10T05:13:51.261Z,929.8
2019-05-10T05:14:52.398Z,929.8
2019-05-10T05:15:53.522Z,929.8
2019-05-10T05:16:54.289Z,929.9
2019-05-10T05:17:55.711Z,929.7
2019-05-10T05:18:56.835Z,929.8
2019-05-10T05:19:57.957Z,929.9
2019-05-10T05:20:59.120Z,929.8
2019-05-10T05:22:00.233Z,929.8
2019-05-10T05:23:01.655Z,929.9
2019-05-10T05:24:02.785Z,929.9
2019-05-10T05:25:08.974Z,929.8
2019-05-10T05:26:05.307Z,929.9
2019-05-10T05:27:05.793Z,929.7
2019-05-10T05:28:08.390Z,929.9
2019-05-10T05:29:07.859Z,929.8
2019-05-10T05:30:09.279Z,929.8
2019-05-10T05:31:10.680Z,929.9
2019-05-10T05:32:13.405Z,929.9
2019-05-10T05:33:12.944Z,930
2019-05-10T05:34:14.338Z,929.9
2019-05-10T05:35:15.743Z,929.9
2019-05-10T05:36:17.149Z,929.8
2019-05-10T05:37:17.890Z,929.9
2019-05-10T05:38:19.323Z,930
2019-05-10T05:39:20.722Z,930
2019-05-10T05:40:22.173Z,930.1
2019-05-10T05:41:23.266Z,930
2019-05-10T05:42:33.702Z,930.1
2019-05-10T05:43:26.029Z,930
2019-05-10T05:44:33.280Z,930
2019-05-10T05:45:34.201Z,930.1
2019-05-10T05:46:29.620Z,930.1
2019-05-10T05:47:30.210Z,930
2019-05-10T05:48:46.016Z,930
2019-05-10T05:49:32.277Z,930
2019-05-10T05:50:33.770Z,930.1
2019-05-10T05:51:35.160Z,929.1
2019-05-10T05:52:36.619Z,930.2
2019-05-10T05:53:49.711Z,930.2
2019-05-10T05:54:38.981Z,930.2
2019-05-10T05:55:40.109Z,930.3
2019-05-10T05:56:44.401Z,930.2
2019-05-10T05:57:42.510Z,930.3
2019-05-10T05:58:52.367Z,930.3
2019-05-10T05:59:44.699Z,930.3
2019-05-10T06:00:52.098Z,930.3
2019-05-10T06:01:47.179Z,930.3
2019-05-10T06:02:48.314Z,930.3
2019-05-10T06:03:49.456Z,930.4
2019-05-10T06:04:52.989Z,930.3
2019-05-10T06:05:52.365Z,930.4
2019-05-10T06:06:58.753Z,930.4
2019-05-10T06:07:58.112Z,930.4
2019-05-10T06:09:05.164Z,930.3
2019-05-10T06:09:56.203Z,930.4
2019-05-10T06:10:59.739Z,930.5
2019-05-10T06:11:58.273Z,930.5
2019-05-10T06:12:59.650Z,930.5
2019-05-10T06:14:03.528Z,930.6
2019-05-10T06:15:02.120Z,930.5
2019-05-10T06:16:12.654Z,930.6
2019-05-10T06:17:04.764Z,930.6
2019-05-10T06:18:09.475Z,930.6
2019-05-10T06:19:06.972Z,930.7
2019-05-10T06:20:12.815Z,930.6
2019-05-10T06:21:09.166Z,930.6
2019-05-10T06:22:12.335Z,930.6
2019-05-10T06:23:11.446Z,930.7
2019-05-10T06:24:20.992Z,930.7
2019-05-10T06:25:14.311Z,930.6
2019-05-10T06:26:33.736Z,930.6
2019-05-10T06:27:16.712Z,930.7
2019-05-10T06:29:03.251Z,929
2019-05-10T06:29:24.987Z,930.7
2019-05-10T06:30:18.307Z,930.7
2019-05-10T06:31:19.691Z,930.7
2019-05-10T06:32:21.088Z,930.7
2019-05-10T06:33:22.488Z,930.8
2019-05-10T06:34:23.625Z,930.8
2019-05-10T06:35:24.763Z,930.7
2019-05-10T06:36:25.892Z,930.8
2019-05-10T06:37:27.018Z,930.8
2019-05-10T06:38:27.785Z,930.7
2019-05-10T06:39:29.206Z,930.8
2019-05-10T06:40:49.094Z,930.7
2019-05-10T06:41:32.610Z,930.9
2019-05-10T06:42:34.537Z,930.9
2019-05-10T06:43:33.186Z,930.9
2019-05-10T06:44:38.424Z,930.8
2019-05-10T06:45:35.779Z,930.9
2019-05-10T06:46:36.904Z,930.8
2019-05-10T06:47:41.822Z,929.1
2019-05-10T06:48:38.166Z,930.9
2019-05-10T06:49:40.825Z,930.9
2019-05-10T06:50:40.142Z,930.9
2019-05-10T06:51:42.648Z,930.9
2019-05-10T06:52:42.509Z,930.9
2019-05-10T06:53:51.887Z,930.9
2019-05-10T06:54:44.964Z,930.9
2019-05-10T06:55:46.125Z,930.9
2019-05-10T06:56:47.514Z,930.9
2019-05-10T06:57:49.860Z,930.8
2019-05-10T06:58:49.219Z,930.8
2019-05-10T06:59:50.638Z,930.9
2019-05-10T07:00:51.771Z,930.9
2019-05-10T07:01:52.896Z,930.9
2019-05-10T07:02:54.304Z,930.9
2019-05-10T07:03:55.696Z,930.8
2019-05-10T07:04:57.134Z,931
2019-05-10T07:05:58.256Z,931
2019-05-10T07:06:59.393Z,931
2019-05-10T07:08:13.064Z,931
2019-05-10T07:10:57.072Z,931
2019-05-10T07:11:57.882Z,930.9
2019-05-10T07:13:08.989Z,931
2019-05-10T07:14:00.270Z,931
2019-05-10T07:15:09.217Z,931
2019-05-10T07:16:02.544Z,931
2019-05-10T07:17:04.465Z,931
2019-05-10T07:18:04.621Z,931
2019-05-10T07:19:05.754Z,931
2019-05-10T07:20:06.866Z,930.9
2019-05-10T07:21:08.714Z,931
2019-05-10T07:22:09.161Z,931
2019-05-10T07:23:13.188Z,931
2019-05-10T07:24:11.294Z,931
2019-05-10T07:25:13.137Z,931
2019-05-10T07:26:17.297Z,931
2019-05-10T07:27:14.704Z,930.9
2019-05-10T07:28:17.355Z,930.9
2019-05-10T07:29:29.393Z,931
2019-05-10T07:30:18.126Z,931
2019-05-10T07:31:23.144Z,931
2019-05-10T07:32:27.478Z,931
2019-05-10T07:33:20.806Z,931
2019-05-10T07:34:23.068Z,931
2019-05-10T07:35:23.450Z,931
2019-05-10T07:36:34.589Z,931
2019-05-10T07:37:25.887Z,931
2019-05-10T07:38:37.953Z,931
2019-05-10T07:39:28.248Z,931
2019-05-10T07:40:29.660Z,931
2019-05-10T07:41:30.812Z,931
2019-05-10T07:42:31.912Z,931.1
2019-05-10T07:43:34.506Z,931
2019-05-10T07:44:33.879Z,931
2019-05-10T07:45:35.295Z,931.1
2019-05-10T07:46:45.681Z,931
2019-05-10T07:47:38.034Z,931
2019-05-10T07:48:40.983Z,931.1
2019-05-10T07:49:39.388Z,931
2019-05-10T07:50:42.193Z,931
2019-05-10T07:51:41.961Z,931.1
2019-05-10T07:52:50.962Z,931.1
2019-05-10T07:53:43.274Z,931.1
2019-05-10T07:54:45.619Z,931
2019-05-10T07:55:45.849Z,931.1
2019-05-10T07:56:47.799Z,931.1
2019-05-10T07:57:48.334Z,931
2019-05-10T07:58:50.321Z,930.9
2019-05-10T07:59:57.449Z,931.2
2019-05-10T08:00:51.819Z,931.2
2019-05-10T08:01:52.989Z,931.1
2019-05-10T08:03:00.686Z,931.1
2019-05-10T08:03:59.165Z,931
2019-05-10T08:04:59.023Z,931.1
2019-05-10T08:06:08.316Z,930.7
2019-05-10T08:06:59.670Z,931
2019-05-10T08:07:59.168Z,931.1
2019-05-10T08:09:01.672Z,931.1
2019-05-10T08:10:04.969Z,930.9
2019-05-10T08:11:03.054Z,931
2019-05-10T08:12:12.878Z,931.1
2019-05-10T08:13:08.962Z,931.1
2019-05-10T08:14:10.387Z,931.1
2019-05-10T08:15:08.545Z,931.1
2019-05-10T08:16:11.202Z,931.1
2019-05-10T08:17:14.323Z,931.1
2019-05-10T08:18:09.949Z,931.1
2019-05-10T08:19:10.071Z,931.1
2019-05-10T08:20:19.859Z,931.1
2019-05-10T08:21:32.168Z,931.1
2019-05-10T08:22:14.869Z,931.1
2019-05-10T08:23:17.872Z,931.1
2019-05-10T08:24:16.646Z,931.1
2019-05-10T08:25:22.958Z,931
2019-05-10T08:26:21.841Z,931
2019-05-10T08:27:22.771Z,931.1
2019-05-10T08:28:19.291Z,931.1
2019-05-10T08:29:22.561Z,931.2
2019-05-10T08:30:34.421Z,931.2
2019-05-10T08:31:25.638Z,931.1
2019-05-10T08:32:25.300Z,931
2019-05-10T08:35:24.133Z,931.1
2019-05-10T08:36:21.879Z,931.2
2019-05-10T08:37:43.217Z,931.1
2019-05-10T08:38:22.530Z,931
2019-05-10T08:39:23.927Z,931.1
2019-05-10T08:40:42.891Z,931
2019-05-10T08:41:27.777Z,931
2019-05-10T08:43:00.031Z,931.3
2019-05-10T08:43:30.585Z,931
2019-05-10T08:44:28.302Z,931.1
2019-05-10T08:45:29.439Z,931.2
2019-05-10T08:46:47.367Z,931.2
2019-05-10T08:47:33.266Z,931.2
2019-05-10T08:48:33.222Z,931.1
2019-05-10T08:50:15.744Z,931.1
2019-05-10T08:51:06.185Z,931
2019-05-10T08:51:47.296Z,931.2
2019-05-10T08:52:42.086Z,931.1
2019-05-10T08:53:38.299Z,931
2019-05-10T08:54:38.286Z,931.2
2019-05-10T08:55:38.377Z,931.1
2019-05-10T08:56:39.512Z,931.2
2019-05-10T08:59:42.855Z,931.2
2019-05-10T09:00:53.691Z,931.1
2019-05-10T09:01:58.723Z,931.2
2019-05-10T09:02:48.170Z,931.3
2019-05-10T09:03:52.754Z,931.2
2019-05-10T09:04:50.132Z,931.2
2019-05-10T09:05:48.814Z,931.3
2019-05-10T09:07:02.790Z,931.2
2019-05-10T09:07:52.047Z,931
2019-05-10T09:08:52.688Z,931.2
2019-05-10T09:09:58.171Z,931.2
2019-05-10T09:10:53.243Z,931.2
2019-05-10T09:12:02.552Z,931.2
2019-05-10T09:13:03.667Z,931.2
2019-05-10T09:14:03.261Z,931.2
2019-05-10T09:15:06.246Z,931.3
2019-05-10T09:16:02.585Z,931.2
2019-05-10T09:18:58.910Z,931.2
2019-05-10T09:19:57.347Z,931.3
2019-05-10T09:21:14.189Z,931.3
2019-05-10T09:22:01.889Z,931.1
2019-05-10T09:22:58.353Z,931.2
2019-05-10T09:24:12.779Z,931.2
2019-05-10T09:25:01.752Z,931.1
2019-05-10T09:26:22.622Z,931.2
2019-05-10T09:27:02.939Z,931.3
2019-05-10T09:28:21.827Z,931.2
2019-05-10T09:29:07.037Z,931.3
2019-05-10T09:30:18.063Z,931.3
2019-05-10T09:31:32.578Z,931.3
2019-05-10T09:32:12.599Z,931.3
2019-05-10T09:33:10.377Z,931.4
2019-05-10T09:34:12.013Z,931.3
2019-05-10T09:35:12.520Z,931.3
2019-05-10T09:36:12.403Z,931.3
2019-05-10T09:37:14.130Z,931.4
2019-05-10T09:38:13.807Z,931.3
2019-05-10T09:39:21.299Z,931.3
2019-05-10T09:42:33.194Z,931.3
2019-05-10T09:45:09.715Z,931.4
2019-05-10T09:46:08.236Z,931.3
2019-05-10T09:47:09.408Z,931.4
2019-05-10T09:48:11.762Z,931.3
2019-05-10T09:49:23.827Z,931.4
2019-05-10T09:50:12.600Z,931.4
2019-05-10T09:51:13.656Z,931.4
2019-05-10T09:52:18.107Z,931.2
2019-05-10T09:53:25.600Z,931.4
2019-05-10T09:54:14.578Z,931.3
2019-05-10T09:55:17.489Z,931.4
2019-05-10T09:56:17.277Z,931.3
2019-05-10T09:57:17.733Z,931.4
2019-05-10T09:58:22.165Z,931.3
2019-05-10T09:59:19.452Z,931.2
2019-05-10T10:00:20.594Z,931.3
2019-05-10T10:01:21.998Z,931.1
2019-05-10T10:02:27.316Z,931.3
2019-05-10T10:03:24.008Z,931.3
2019-05-10T10:04:27.979Z,931.3
2019-05-10T10:05:26.516Z,931.3
2019-05-10T10:06:29.326Z,931.3
2019-05-10T10:07:37.404Z,931.2
2019-05-10T10:08:28.511Z,931.3
2019-05-10T10:09:47.875Z,931.3
2019-05-10T10:10:32.472Z,931.3
2019-05-10T10:11:33.231Z,931.3
2019-05-10T10:12:32.345Z,931.2
2019-05-10T10:13:58.072Z,931.3
2019-05-10T10:14:39.177Z,931.4
2019-05-10T10:15:39.685Z,931.3
2019-05-10T10:16:37.069Z,931.4
2019-05-10T10:17:47.814Z,931.3
2019-05-10T10:18:39.094Z,931.3
2019-05-10T10:19:47.972Z,931.2
2019-05-10T10:20:50.705Z,931.2
2019-05-10T10:21:41.742Z,931.4
2019-05-10T10:22:43.284Z,931.3
2019-05-10T10:23:43.686Z,931.1
2019-05-10T10:24:48.811Z,931.2
2019-05-10T10:25:48.357Z,931.1
2019-05-10T10:26:48.236Z,931.3
2019-05-10T10:27:48.627Z,931.2
2019-05-10T10:28:57.126Z,931.2
2019-05-10T10:29:52.919Z,931.3
2019-05-10T10:30:58.782Z,929.8
2019-05-10T10:31:55.687Z,931.3
2019-05-10T10:32:52.666Z,931.2
2019-05-10T10:34:07.848Z,931.2
2019-05-10T10:35:00.824Z,931.3
2019-05-10T10:36:04.335Z,931.2
2019-05-10T10:36:58.027Z,931.2
2019-05-10T10:38:02.757Z,931.3
2019-05-10T10:38:59.674Z,931.3
2019-05-10T10:40:15.948Z,931.2
2019-05-10T10:41:00.790Z,931.3
2019-05-10T10:42:08.600Z,931.3
2019-05-10T10:43:03.218Z,931.3
2019-05-10T10:44:03.840Z,931.4
2019-05-10T10:45:04.254Z,931.4
2019-05-10T10:46:11.818Z,931.4
2019-05-10T10:47:07.926Z,931.3
2019-05-10T10:48:17.843Z,931.3
2019-05-10T10:49:07.264Z,931.3
2019-05-10T10:50:18.816Z,931.3
2019-05-10T10:51:09.150Z,931.3
2019-05-10T10:52:17.288Z,931.3
2019-05-10T10:53:11.356Z,931.3
2019-05-10T10:54:12.885Z,931.2
2019-05-10T10:55:18.874Z,931.1
2019-05-10T10:56:17.362Z,931.2
2019-05-10T10:57:17.987Z,931.3
2019-05-10T10:58:18.394Z,931.3
2019-05-10T10:59:20.761Z,931.2
2019-05-10T11:00:28.776Z,931.2
2019-05-10T11:01:25.106Z,931.2
2019-05-10T11:02:41.399Z,931.2
2019-05-10T11:03:23.772Z,931.2
2019-05-10T11:04:22.322Z,931.3
2019-05-10T11:05:23.448Z,931.3
2019-05-10T11:06:24.901Z,931.3
2019-05-10T11:07:25.233Z,931.2
2019-05-10T11:08:26.630Z,931.3
2019-05-10T11:09:27.768Z,931.2
2019-05-10T11:10:30.913Z,931.2
2019-05-10T11:11:38.419Z,931.3
2019-05-10T11:12:31.022Z,931.1
2019-05-10T11:14:00.312Z,931.2
2019-05-10T11:14:39.804Z,931.2
2019-05-10T11:15:36.106Z,931.2
2019-05-10T11:16:35.729Z,931.2
2019-05-10T11:17:36.509Z,931.1
2019-05-10T11:18:37.908Z,931.2
2019-05-10T11:19:41.470Z,931.2
2019-05-10T11:20:41.792Z,931.2
2019-05-10T11:21:41.661Z,931.2
2019-05-10T11:22:57.330Z,931.1
2019-05-10T11:23:42.306Z,931.2
2019-05-10T11:24:43.713Z,931.2
2019-05-10T11:26:01.443Z,931.2
2019-05-10T11:26:51.634Z,931
2019-05-10T11:27:47.505Z,931.1
2019-05-10T11:28:51.358Z,931.1
2019-05-10T11:29:47.768Z,931.2
2019-05-10T11:30:51.095Z,931
2019-05-10T11:32:17.365Z,931
2019-05-10T11:32:51.502Z,931.1
2019-05-10T11:33:58.159Z,931.1
2019-05-10T11:34:53.769Z,931.1
2019-05-10T11:35:57.540Z,931.1
2019-05-10T11:36:56.622Z,931.1
2019-05-10T11:37:56.531Z,931.1
2019-05-10T11:39:05.906Z,931.2
2019-05-10T11:39:58.409Z,931.1
2019-05-10T11:41:01.915Z,930.8
2019-05-10T11:42:04.751Z,931.1
2019-05-10T11:43:01.536Z,929.8
2019-05-10T11:44:05.051Z,931.1
2019-05-10T11:45:03.089Z,931
2019-05-10T11:46:04.478Z,931.1
2019-05-10T11:47:20.849Z,931.1
2019-05-10T11:50:06.190Z,931.2
2019-05-10T11:52:58.189Z,931.2
2019-05-10T11:54:04.995Z,930.9
2019-05-10T11:55:01.193Z,931.1
2019-05-10T11:56:01.958Z,931.2
2019-05-10T11:59:02.447Z,931.2
2019-05-10T12:02:09.344Z,931.2
2019-05-10T12:04:52.353Z,931.2
2019-05-10T12:05:52.992Z,931
2019-05-10T12:06:56.743Z,931.2
2019-05-10T12:07:54.530Z,931.2
2019-05-10T12:11:27.455Z,931.2
2019-05-10T12:13:43.117Z,931.2
2019-05-10T12:14:46.561Z,931.1
2019-05-10T12:17:43.797Z,930.7
2019-05-10T12:18:46.110Z,931.2
2019-05-10T12:22:52.075Z,931.2
2019-05-10T12:26:15.243Z,931.2
2019-05-10T12:27:21.720Z,931.3
2019-05-10T12:28:33.551Z,931.2
2019-05-10T12:29:31.631Z,931.2
2019-05-10T12:30:34.748Z,931.2
2019-05-10T12:31:31.460Z,931.3
2019-05-10T12:32:36.916Z,931.3
2019-05-10T12:33:34.063Z,931.3
2019-05-10T12:34:35.207Z,931.2
2019-05-10T12:35:52.123Z,931.3
2019-05-10T12:36:41.177Z,931.3
2019-05-10T12:37:39.395Z,931.2
2019-05-10T12:38:43.711Z,931.3
2019-05-10T12:39:39.487Z,931.3
2019-05-10T12:40:41.780Z,931.3
2019-05-10T12:41:53.807Z,931.2
2019-05-10T12:42:46.304Z,931.3
2019-05-10T12:43:51.573Z,931.4
2019-05-10T12:44:55.838Z,931.4
2019-05-10T12:45:46.003Z,931.4
2019-05-10T12:46:47.716Z,931.3
2019-05-10T12:47:48.105Z,931.2
2019-05-10T12:48:51.596Z,931.4
2019-05-10T12:49:53.714Z,931.3
2019-05-10T12:50:52.128Z,931.2
2019-05-10T12:51:51.813Z,931.3
2019-05-10T12:53:18.678Z,931.3
2019-05-10T12:53:53.547Z,931.4
2019-05-10T12:54:54.703Z,931.5
2019-05-10T12:55:56.123Z,931.5
2019-05-10T12:56:57.258Z,931.5
2019-05-10T12:57:58.383Z,931.4
2019-05-10T12:59:05.047Z,931.5
2019-05-10T13:00:00.794Z,931.5
2019-05-10T13:01:04.466Z,931.5
2019-05-10T13:02:04.304Z,931.4
2019-05-10T13:03:19.638Z,931.5
2019-05-10T13:04:18.663Z,931.5
2019-05-10T13:05:05.953Z,931.5
2019-05-10T13:06:07.348Z,931.5
2019-05-10T13:07:08.737Z,931.4
2019-05-10T13:08:10.131Z,931.4
2019-05-10T13:09:11.261Z,931.5
2019-05-10T13:10:15.132Z,931.5
2019-05-10T13:11:13.226Z,931.4
2019-05-10T13:12:14.631Z,931.5
2019-05-10T13:13:17.399Z,931.4
2019-05-10T13:14:17.149Z,931.4
2019-05-10T13:15:18.292Z,931.5
2019-05-10T13:16:19.421Z,931.4
2019-05-10T13:17:20.543Z,931.4
2019-05-10T13:18:23.004Z,931.4
2019-05-10T13:19:22.397Z,931.4
2019-05-10T13:20:23.377Z,931.3
2019-05-10T13:21:30.195Z,931.3
2019-05-10T13:22:25.737Z,931.5
2019-05-10T13:23:27.333Z,931.3
2019-05-10T13:24:27.746Z,931.4
2019-05-10T13:25:29.149Z,931.3
2019-05-10T13:26:30.541Z,931.4
2019-05-10T13:27:31.942Z,931.4
2019-05-10T13:28:33.340Z,931.3
2019-05-10T13:29:34.471Z,931.3
2019-05-10T13:30:35.004Z,931.4
2019-05-10T13:31:41.667Z,931.4
2019-05-10T13:32:37.563Z,931.3
2019-05-10T13:33:41.726Z,931.3
2019-05-10T13:34:39.514Z,931.4
2019-05-10T13:35:40.940Z,931.4
2019-05-10T13:36:42.066Z,931.4
2019-05-10T13:37:43.197Z,931.3
2019-05-10T13:38:48.959Z,931.3
2019-05-10T13:39:45.299Z,931.2
2019-05-10T13:40:52.988Z,931.3
2019-05-10T13:41:47.057Z,931.1
2019-05-10T13:42:48.183Z,931.1
2019-05-10T13:43:49.367Z,931.1
2019-05-10T13:44:50.460Z,930.2
2019-05-10T13:45:51.616Z,931.2
2019-05-10T13:46:53.016Z,931.2